Time;durP1;ratioP1;P1;durP2;ratioP2;P2;SDS_P1;SDS_P2;PMS_P1;PMS_P2;Temp;Humidity;BMP_temperature;BMP_pressure;BME280_temperature;BME280_humidity;BME280_pressure;Samples;Min_cycle;Max_cycle;Signal;HPM_P1;HPM_P2
2022/04/25 00:03:05;;;;;;;;;;;;;;;;;;;;;
2022/04/25 00:08:33;;;;;;;;;20.50;20.50;;;;;13.46;100.00;100418.28;5918454;24;46034;-82
2022/04/25 00:11:52;;;;;;;;;;;;;;;;;;;;;
2022/04/25 00:14:55;;;;;;;;;26.25;24.25;;;;;13.40;100.00;100418.81;5887771;24;68134;-81
2022/04/25 00:17:58;;;;;;;;;;;;;;;;;;;;;
2022/04/25 00:28:08;;;;;;;;;;;;;;;;;;;;;
2022/04/25 00:30:59;;;;;;;;;21.25;19.75;;;;;13.21;100.00;100413.28;5786906;24;69292;-82
2022/04/25 00:33:27;;;;;;;;;23.25;23.25;;;;;13.17;100.00;100409.16;5734623;24;46604;-81
2022/04/25 00:36:17;;;;;;;;;25.50;24.25;;;;;13.11;100.00;100423.84;5732570;24;45373;-83
2022/04/25 00:39:01;;;;;;;;;;;;;;;;;;;;;
2022/04/25 00:44:46;;;;;;;;;21.00;18.75;;;;;12.99;100.00;100415.03;5757897;24;45470;-84
2022/04/25 00:50:55;;;;;;;;;14.50;14.50;;;;;12.87;100.00;100418.72;5738698;24;45305;-82
2022/04/25 01:01:14;;;;;;;;;50.33;38.33;;;;;12.67;100.00;100414.13;5743825;24;44734;-83
2022/04/25 01:04:22;;;;;;;;;49.33;39.67;;;;;12.64;100.00;100417.91;5894123;23;45529;-83
2022/04/25 01:07:23;;;;;;;;;48.67;39.67;;;;;12.65;100.00;100411.59;5932484;23;45424;-83
2022/04/25 01:10:15;;;;;;;;;53.00;43.00;;;;;12.60;100.00;100424.47;5947294;23;45224;-82
2022/04/25 01:15:56;;;;;;;;;51.67;42.00;;;;;12.47;100.00;100419.25;5952287;23;45430;-82
2022/04/25 01:18:30;;;;;;;;;41.33;34.00;;;;;12.47;100.00;100439.72;5949998;23;44765;-81
2022/04/25 01:20:57;;;;;;;;;52.33;38.67;;;;;12.44;100.00;100432.84;5961897;23;45309;-81
2022/04/25 01:28:53;;;;;;;;;41.67;36.33;;;;;12.47;100.00;100413.06;6011222;23;45331;-82
2022/04/25 01:31:19;;;;;;;;;41.33;35.33;;;;;12.43;100.00;100427.63;5988092;23;46906;-83
2022/04/25 01:33:44;;;;;;;;;30.00;29.00;;;;;12.35;100.00;100421.09;6011899;23;45202;-83
2022/04/25 01:36:11;;;;;;;;;31.67;28.00;;;;;12.28;100.00;100413.69;6050405;22;44630;-82
2022/04/25 01:38:36;;;;;;;;;35.33;31.33;;;;;12.31;100.00;100419.63;6219756;22;44713;-82
2022/04/25 01:41:01;;;;;;;;;26.00;23.67;;;;;12.28;100.00;100413.69;6220087;22;45260;-80
2022/04/25 01:43:27;;;;;;;;;27.67;25.67;;;;;12.30;100.00;100417.09;6218575;22;44638;-82
2022/04/25 01:45:52;;;;;;;;;32.33;29.67;;;;;12.20;100.00;100416.97;6219390;22;45154;-81
2022/04/25 01:48:18;;;;;;;;;19.00;18.00;;;;;12.21;100.00;100417.81;6221502;22;45299;-82
2022/04/25 01:50:43;;;;;;;;;24.00;22.67;;;;;12.13;100.00;100428.22;6222334;22;44896;-81
2022/04/25 01:53:08;;;;;;;;;29.00;26.00;;;;;12.04;100.00;100427.16;6194426;22;44787;-81
2022/04/25 01:55:34;;;;;;;;;25.75;19.75;;;;;12.06;100.00;100426.06;6191611;22;44731;-83
2022/04/25 01:57:59;;;;;;;;;21.67;18.67;;;;;12.08;100.00;100424.09;6191245;22;44821;-82
2022/04/25 02:00:25;;;;;;;;;25.33;21.67;;;;;12.06;100.00;100439.38;6193291;22;46691;-82
2022/04/25 02:02:50;;;;;;;;;24.67;24.67;;;;;12.06;100.00;100433.19;6213175;22;45310;-81
2022/04/25 02:05:15;;;;;;;;;28.33;21.00;;;;;12.06;100.00;100435.84;6219534;22;45335;-81
2022/04/25 02:07:41;;;;;;;;;27.33;24.67;;;;;12.04;100.00;100438.66;6221561;22;44898;-82
2022/04/25 02:10:06;;;;;;;;;22.00;21.00;;;;;11.87;100.00;100448.91;6191848;22;46372;-81
2022/04/25 02:12:32;;;;;;;;;28.67;25.67;;;;;11.77;100.00;100441.59;6218193;22;45319;-82
2022/04/25 02:14:57;;;;;;;;;26.33;22.67;;;;;11.72;100.00;100435.75;6216771;22;44693;-82
2022/04/25 02:17:23;;;;;;;;;33.00;24.67;;;;;11.70;100.00;100459.00;6187160;22;45489;-82
2022/04/25 02:19:48;;;;;;;;;19.67;19.67;;;;;11.61;100.00;100442.88;6213864;22;45285;-83
2022/04/25 02:22:16;;;;;;;;;25.00;23.67;;;;;11.58;100.00;100433.31;6214574;22;45308;-83
2022/04/25 02:24:41;;;;;;;;;29.67;25.67;;;;;11.56;100.00;100443.22;6214632;22;45382;-82
2022/04/25 02:27:08;;;;;;;;;29.67;24.67;;;;;11.56;100.00;100451.22;6214788;22;45386;-83
2022/04/25 02:29:35;;;;;;;;;24.00;23.33;;;;;11.54;100.00;100448.66;6214415;22;45437;-82
2022/04/25 02:32:02;;;;;;;;;23.00;23.00;;;;;11.51;100.00;100445.41;6216847;22;45238;-82
2022/04/25 02:34:29;;;;;;;;;26.67;23.33;;;;;11.50;100.00;100438.34;6188831;22;44711;-81
2022/04/25 02:36:55;;;;;;;;;21.33;19.67;;;;;11.48;100.00;100449.13;6216543;22;44826;-82
2022/04/25 02:39:22;;;;;;;;;25.33;24.00;;;;;11.44;100.00;100446.81;6218066;22;45417;-81
2022/04/25 02:41:47;;;;;;;;;27.00;22.00;;;;;11.42;100.00;100446.09;6221292;22;45244;-82
2022/04/25 02:44:13;;;;;;;;;34.33;29.33;;;;;11.32;100.00;100454.75;6217225;22;45321;-83
2022/04/25 02:46:38;;;;;;;;;34.00;29.67;;;;;11.21;100.00;100446.69;6190307;22;44862;-81
2022/04/25 02:49:05;;;;;;;;;31.33;28.33;;;;;11.27;100.00;100451.59;6218149;22;44942;-81
2022/04/25 02:51:30;;;;;;;;;31.67;29.33;;;;;11.26;100.00;100454.34;6216825;22;45398;-84
2022/04/25 02:53:56;;;;;;;;;28.67;23.33;;;;;11.24;100.00;100445.63;6214479;22;45336;-81
2022/04/25 02:56:21;;;;;;;;;34.67;30.00;;;;;11.26;100.00;100452.53;6186434;22;45339;-82
2022/04/25 02:58:46;;;;;;;;;31.33;27.33;;;;;11.25;100.00;100445.50;6187580;22;46218;-83
2022/04/25 03:01:16;;;;;;;;;24.67;24.00;;;;;11.18;100.00;100451.41;6217928;22;44656;-82
2022/04/25 03:03:41;;;;;;;;;22.00;20.00;;;;;11.19;100.00;100453.09;6228540;22;44652;-82
2022/04/25 03:06:10;;;;;;;;;32.67;30.00;;;;;11.13;100.00;100457.06;6228940;22;44734;-82
2022/04/25 03:08:36;;;;;;;;;35.00;30.33;;;;;11.07;100.00;100449.53;6227329;22;45128;-81
2022/04/25 03:11:10;;;;;;;;;31.00;25.67;;;;;11.10;100.00;100451.97;6224824;22;44829;-83
2022/04/25 03:13:38;;;;;;;;;30.33;28.00;;;;;11.12;100.00;100458.03;6216958;22;44827;-80
2022/04/25 03:16:04;;;;;;;;;30.00;25.00;;;;;11.13;100.00;100451.75;6191721;22;44805;-82
2022/04/25 03:18:30;;;;;;;;;28.33;23.67;;;;;11.14;100.00;100461.41;6216655;22;45273;-83
2022/04/25 03:20:56;;;;;;;;;29.67;28.00;;;;;11.13;100.00;100458.88;6215101;22;45255;-81
2022/04/25 03:23:22;;;;;;;;;29.67;26.00;;;;;11.10;100.00;100457.28;6188064;22;45237;-82
2022/04/25 03:25:49;;;;;;;;;28.33;26.33;;;;;10.99;100.00;100458.09;6212227;22;45414;-82
2022/04/25 03:28:15;;;;;;;;;28.00;28.00;;;;;10.97;100.00;100472.44;6213921;22;45346;-83
2022/04/25 03:30:41;;;;;;;;;34.00;28.67;;;;;10.96;100.00;100460.94;6214083;22;45420;-83
2022/04/25 03:33:08;;;;;;;;;16.67;16.67;;;;;10.93;100.00;100455.03;6214333;22;45236;-82
2022/04/25 03:35:34;;;;;;;;;27.33;27.33;;;;;10.89;100.00;100474.81;6214377;22;44753;-83
2022/04/25 03:38:00;;;;;;;;;26.67;25.33;;;;;10.81;100.00;100465.56;6187002;22;46184;-81
2022/04/25 03:40:25;;;;;;;;;25.00;25.00;;;;;10.79;100.00;100451.56;6214022;22;44698;-82
2022/04/25 03:42:51;;;;;;;;;34.33;28.33;;;;;10.78;100.00;100471.13;6213694;22;44690;-81
2022/04/25 03:45:18;;;;;;;;;30.33;25.33;;;;;10.78;100.00;100471.13;6215181;22;45572;-82
2022/04/25 03:47:45;;;;;;;;;44.00;32.67;;;;;10.74;100.00;100479.44;6192513;22;47436;-82
2022/04/25 03:50:11;;;;;;;;;41.33;29.67;;;;;10.73;100.00;100469.75;6219866;22;44717;-82
2022/04/25 03:52:39;;;;;;;;;32.00;31.00;;;;;10.70;100.00;100476.13;6214553;22;44846;-83
2022/04/25 03:57:51;;;;;;;;;28.67;28.67;;;;;10.68;100.00;100477.19;6217048;22;45201;-82
2022/04/25 04:00:17;;;;;;;;;32.67;30.00;;;;;10.60;100.00;100476.91;6188551;22;45213;-82
2022/04/25 04:02:43;;;;;;;;;29.00;26.67;;;;;10.61;100.00;100486.56;6217112;22;44656;-82
2022/04/25 04:05:08;;;;;;;;;30.33;23.33;;;;;10.64;100.00;100497.00;6215036;22;45211;-81
2022/04/25 04:07:34;;;;;;;;;36.00;31.33;;;;;10.60;100.00;100488.38;6216124;22;45357;-80
2022/04/25 04:09:59;;;;;;;;;40.67;33.00;;;;;10.53;100.00;100481.78;6193928;22;45363;-83
2022/04/25 04:12:33;;;;;;;;;31.67;29.67;;;;;10.51;100.00;100486.38;6196063;22;45338;-83
2022/04/25 04:14:59;;;;;;;;;34.67;31.67;;;;;10.45;100.00;100489.47;6196007;22;45403;-82
2022/04/25 04:17:26;;;;;;;;;41.33;34.67;;;;;10.46;100.00;100499.97;6191819;22;44920;-81
2022/04/25 04:19:53;;;;;;;;;31.67;30.00;;;;;10.45;100.00;100500.09;6217628;22;44774;-82
2022/04/25 04:22:21;;;;;;;;;37.00;31.00;;;;;10.43;100.00;100500.19;6188808;22;45395;-82
2022/04/25 04:24:46;;;;;;;;;40.33;36.33;;;;;10.35;100.00;100509.63;6191696;22;44890;-82
2022/04/25 04:27:14;;;;;;;;;32.00;30.33;;;;;10.36;100.00;100498.06;6216986;22;45234;-82
2022/04/25 04:29:40;;;;;;;;;28.33;27.67;;;;;10.34;100.00;100505.28;6189193;22;44799;-82
2022/04/25 04:32:06;;;;;;;;;36.33;31.33;;;;;10.34;100.00;100511.44;6190391;22;44836;-82
2022/04/25 04:34:33;;;;;;;;;35.00;30.33;;;;;10.33;100.00;100512.41;6216483;22;44739;-81
2022/04/25 04:36:59;;;;;;;;;39.33;33.33;;;;;10.29;100.00;100522.38;6213209;22;45201;-82
2022/04/25 04:39:24;;;;;;;;;43.00;36.00;;;;;10.30;100.00;100512.63;6190522;22;45142;-82
2022/04/25 04:41:50;;;;;;;;;36.33;30.00;;;;;10.28;100.00;100518.03;6217002;22;45307;-82
2022/04/25 04:44:15;;;;;;;;;33.67;27.67;;;;;10.25;100.00;100538.63;6220615;22;45215;-82
2022/04/25 04:46:41;;;;;;;;;37.67;33.00;;;;;10.16;100.00;100534.78;6218435;22;44879;-82
2022/04/25 04:49:06;;;;;;;;;33.33;32.33;;;;;10.08;100.00;100541.56;6215423;22;45145;-82
2022/04/25 04:51:31;;;;;;;;;48.00;33.67;;;;;10.05;100.00;100545.25;6213890;22;45184;-80
2022/04/25 04:54:00;;;;;;;;;46.33;36.67;;;;;10.06;100.00;100544.34;6214080;22;44699;-82
2022/04/25 04:56:34;;;;;;;;;46.00;36.00;;;;;10.01;100.00;100549.94;6212773;22;45255;-82
2022/04/25 04:59:00;;;;;;;;;38.67;33.00;;;;;10.01;100.00;100559.72;6211766;22;45358;-83
2022/04/25 05:01:27;;;;;;;;;50.33;38.33;;;;;9.97;100.00;100558.22;6219330;22;44741;-82
2022/04/25 05:03:55;;;;;;;;;40.33;36.00;;;;;9.99;100.00;100557.16;6231333;22;44681;-81
2022/04/25 05:06:20;;;;;;;;;48.00;40.00;;;;;9.98;100.00;100567.88;6231450;22;45343;-83
2022/04/25 05:08:46;;;;;;;;;49.33;39.33;;;;;9.94;100.00;100559.25;6193312;22;45279;-83
2022/04/25 05:11:11;;;;;;;;;46.00;39.33;;;;;9.89;100.00;100572.00;6219969;22;45067;-84
2022/04/25 05:13:37;;;;;;;;;48.00;40.00;;;;;9.91;100.00;100571.88;6226539;22;44785;-83
2022/04/25 05:16:04;;;;;;;;;47.33;34.67;;;;;9.94;100.00;100574.34;6223183;22;45066;-83
2022/04/25 05:18:33;;;;;;;;;48.00;36.33;;;;;9.92;100.00;100585.06;6221687;22;45300;-83
2022/04/25 05:20:59;;;;;;;;;32.67;31.00;;;;;9.91;100.00;100579.84;6188114;22;45304;-82
2022/04/25 05:23:25;;;;;;;;;45.00;37.00;;;;;9.94;100.00;100577.84;6185979;22;45626;-82
2022/04/25 05:25:51;;;;;;;;;51.33;42.67;;;;;9.91;100.00;100586.03;6213872;22;44921;-84
2022/04/25 05:28:16;;;;;;;;;52.33;41.33;;;;;9.88;100.00;100580.06;6211734;22;44639;-82
2022/04/25 05:30:43;;;;;;;;;50.67;40.67;;;;;9.90;100.00;100592.25;6214061;22;45248;-85
2022/04/25 05:33:09;;;;;;;;;46.00;37.67;;;;;9.91;100.00;100587.78;6215167;22;45417;-83
2022/04/25 05:35:35;;;;;;;;;51.67;41.00;;;;;9.95;100.00;100591.94;6188052;22;45540;-84
2022/04/25 05:38:02;;;;;;;;;45.00;38.00;;;;;10.02;100.00;100587.97;6215635;22;45377;-84
2022/04/25 05:40:27;;;;;;;;;52.67;41.67;;;;;10.01;100.00;100580.94;6217875;22;45425;-84
2022/04/25 05:42:57;;;;;;;;;51.00;41.67;;;;;9.94;100.00;100593.75;6216210;22;45440;-84
2022/04/25 05:45:24;;;;;;;;;48.67;41.67;;;;;9.92;100.00;100595.69;6215796;22;45190;-83
2022/04/25 05:47:51;;;;;;;;;54.67;45.33;;;;;9.90;100.00;100600.22;6214276;22;45392;-85
2022/04/25 05:53:03;;;;;;;;;50.33;41.67;;;;;9.73;100.00;100622.56;6215788;22;45161;-84
2022/04/25 05:55:30;;;;;;;;;48.33;36.67;;;;;9.81;100.00;100619.41;6211117;22;45294;-83
2022/04/25 05:58:04;;;;;;;;;51.67;42.00;;;;;9.82;100.00;100618.47;6161953;22;45347;-84
2022/04/25 06:00:30;;;;;;;;;56.00;45.67;;;;;9.71;100.00;100639.53;6214627;22;44814;-84
2022/04/25 06:02:57;;;;;;;;;49.00;36.00;;;;;9.59;100.00;100635.88;6214492;22;44749;-85
2022/04/25 06:05:23;;;;;;;;;56.00;44.33;;;;;9.65;100.00;100629.31;6213805;22;45387;-85
2022/04/25 06:07:49;;;;;;;;;59.00;48.67;;;;;9.72;100.00;100643.91;6215851;22;45204;-84
2022/04/25 06:10:17;;;;;;;;;54.33;46.00;;;;;9.64;100.00;100640.88;6219039;22;45355;-84
2022/04/25 06:12:47;;;;;;;;;58.67;47.67;;;;;9.66;100.00;100634.50;6221984;22;45386;-86
2022/04/25 06:15:12;;;;;;;;;57.33;47.33;;;;;9.68;100.00;100634.44;6195163;22;45285;-84
2022/04/25 06:17:38;;;;;;;;;61.67;48.00;;;;;9.69;100.00;100642.28;6215120;22;45345;-85
2022/04/25 06:20:06;;;;;;;;;57.67;47.00;;;;;9.68;100.00;100645.03;6222005;22;44768;-85
2022/04/25 06:22:31;;;;;;;;;56.67;46.00;;;;;9.76;100.00;100650.69;6216697;22;45125;-85
2022/04/25 06:24:57;;;;;;;;;58.00;48.00;;;;;9.72;100.00;100655.34;6217279;22;45202;-84
2022/04/25 06:27:23;;;;;;;;;62.67;49.33;;;;;9.77;100.00;100644.44;6219534;22;44663;-85
2022/04/25 06:29:49;;;;;;;;;57.00;46.00;;;;;9.72;100.00;100644.75;6190745;22;45161;-86
2022/04/25 06:32:14;;;;;;;;;52.33;41.67;;;;;9.80;100.00;100641.56;6217559;22;45090;-84
2022/04/25 06:34:41;;;;;;;;;52.33;43.67;;;;;9.84;100.00;100653.69;6230890;22;45005;-84
2022/04/25 06:37:07;;;;;;;;;57.33;47.33;;;;;9.81;100.00;100643.28;6202178;22;44816;-86
2022/04/25 06:39:33;;;;;;;;;51.67;43.67;;;;;9.90;100.00;100636.53;6203849;22;44644;-85
2022/04/25 06:41:59;;;;;;;;;52.00;41.67;;;;;9.93;100.00;100650.44;6234525;22;44733;-83
2022/04/25 06:44:25;;;;;;;;;63.33;47.33;;;;;9.94;100.00;100665.41;6225055;22;45133;-85
2022/04/25 06:46:50;;;;;;;;;54.67;43.33;;;;;9.87;100.00;100658.81;6191988;22;45268;-83
2022/04/25 06:49:25;;;;;;;;;60.00;47.00;;;;;9.89;100.00;100650.75;6217980;22;45260;-83
2022/04/25 06:51:56;;;;;;;;;58.33;45.67;;;;;9.98;100.00;100658.09;6193021;22;45388;-84
2022/04/25 06:54:24;;;;;;;;;58.00;47.00;;;;;10.11;100.00;100653.69;6218385;22;46680;-85
2022/04/25 06:56:50;;;;;;;;;59.67;48.67;;;;;10.24;100.00;100659.06;6191281;22;44676;-83
2022/04/25 06:59:16;;;;;;;;;57.33;47.00;;;;;10.41;100.00;100653.47;6218918;22;45341;-84
2022/04/25 07:01:42;;;;;;;;;61.67;49.00;;;;;10.41;100.00;100660.59;6219665;22;44788;-82
2022/04/25 07:04:11;;;;;;;;;55.33;43.00;;;;;10.62;100.00;100652.97;6218231;22;45078;-83
2022/04/25 07:06:38;;;;;;;;;57.00;44.67;;;;;10.70;100.00;100659.47;6220530;22;45197;-83
2022/04/25 07:09:14;;;;;;;;;63.00;48.00;;;;;10.80;100.00;100672.97;6196287;22;45525;-84
2022/04/25 07:11:47;;;;;;;;;57.33;47.33;;;;;10.69;100.00;100671.06;6218710;22;45358;-83
2022/04/25 07:14:27;;;;;;;;;61.00;49.00;;;;;10.74;100.00;100668.94;6171795;22;45349;-83
2022/04/25 07:33:14;;;;;;;;;;;;;;;;;;;;;
